createdAt,value
2023-02-18T00:01:50.719Z,96985.41
2023-02-18T00:04:54.915Z,96985.41
2023-02-18T00:07:56.536Z,96987.09
2023-02-18T00:10:58.106Z,96984.25
2023-02-18T00:14:02.684Z,96974.41
2023-02-18T00:17:04.226Z,96977.78
2023-02-18T00:20:07.216Z,96966.25
2023-02-18T00:23:08.881Z,96988.75
2023-02-18T00:26:16.029Z,96975.38
2023-02-18T00:29:18.732Z,96971.88
2023-02-18T00:32:20.359Z,96973.41
2023-02-18T00:35:22.220Z,96974.13
2023-02-18T00:38:23.804Z,96962.41
2023-02-18T00:41:27.632Z,96971.16
2023-02-18T00:44:29.154Z,96977.19
2023-02-18T00:47:32.280Z,96976.22
2023-02-18T00:50:34.974Z,96958.34
2023-02-18T00:53:38.007Z,96969.72
2023-02-18T00:56:39.599Z,96971.53
2023-02-18T00:59:41.246Z,96963.53
2023-02-18T01:02:42.813Z,96959.72
2023-02-18T01:05:45.001Z,96956.91
2023-02-18T01:08:46.556Z,96959.72
2023-02-18T01:11:48.188Z,96959.88
2023-02-18T01:14:49.791Z,96959.88
2023-02-18T01:17:51.914Z,96954.50
2023-02-18T01:20:53.690Z,96960.00
2023-02-18T01:23:55.325Z,96952.81
2023-02-18T01:26:56.881Z,96951.97
2023-02-18T01:29:58.526Z,96940.59
2023-02-18T01:33:00.305Z,96943.41
2023-02-18T01:36:02.249Z,96946.09
2023-02-18T01:39:05.569Z,96941.34
2023-02-18T01:42:07.492Z,96942.03
2023-02-18T01:45:34.044Z,96941.88
2023-02-18T01:48:35.929Z,96944.53
2023-02-18T01:51:43.777Z,96937.50
2023-02-18T01:54:49.221Z,96930.31
2023-02-18T01:57:50.857Z,96935.84
2023-02-18T02:00:52.545Z,96940.34
2023-02-18T02:03:54.852Z,96927.97
2023-02-18T02:06:56.467Z,96919.09
2023-02-18T02:09:59.910Z,96925.28
2023-02-18T02:13:24.828Z,96931.63
2023-02-18T02:16:35.458Z,96921.78
2023-02-18T02:19:40.028Z,96911.91
2023-02-18T02:23:07.236Z,96910.22
2023-02-18T02:26:21.031Z,96908.53
2023-02-18T02:29:57.083Z,96902.50
2023-02-18T02:33:11.360Z,96908.81
2023-02-18T02:36:47.681Z,96909.66
2023-02-18T02:39:52.633Z,96913.34
2023-02-18T02:43:17.943Z,96920.94
2023-02-18T02:46:43.617Z,96901.25
2023-02-18T02:50:11.859Z,96892.25
2023-02-18T02:53:22.261Z,96883.38
2023-02-18T02:56:25.316Z,96889.72
2023-02-18T02:59:29.376Z,96880.84
2023-02-18T03:02:49.370Z,96873.97
2023-02-18T03:06:28.702Z,96872.28
2023-02-18T03:10:04.564Z,96876.09
2023-02-18T03:13:36.606Z,96864.00
2023-02-18T03:16:58.406Z,96873.00
2023-02-18T03:20:23.862Z,96875.28
2023-02-18T03:23:32.568Z,96864.72
2023-02-18T03:26:38.960Z,96870.94
2023-02-18T03:29:44.556Z,96866.00
2023-02-18T03:32:49.666Z,96879.34
2023-02-18T03:35:54.760Z,96865.16
2023-02-18T03:39:01.632Z,96881.03
2023-02-18T03:42:03.946Z,96875.16
2023-02-18T03:45:07.573Z,96879.53
2023-02-18T03:48:09.647Z,96873.63
2023-02-18T03:51:12.305Z,96868.25
2023-02-18T03:54:15.151Z,96868.13
2023-02-18T03:57:18.563Z,96878.69
2023-02-18T04:00:21.092Z,96869.50
2023-02-18T04:03:23.169Z,96874.84
2023-02-18T04:06:25.243Z,96873.34
2023-02-18T04:09:27.537Z,96885.41
2023-02-18T04:12:29.639Z,96878.50
2023-02-18T04:15:33.170Z,96886.69
2023-02-18T04:18:35.447Z,96892.88
2023-02-18T04:21:37.086Z,96890.03
2023-02-18T04:24:40.096Z,96897.22
2023-02-18T04:27:42.204Z,96890.22
2023-02-18T04:30:45.505Z,96889.06
2023-02-18T04:33:47.564Z,96890.03
2023-02-18T04:36:49.139Z,96895.56
2023-02-18T04:39:51.287Z,96892.31
2023-02-18T04:42:52.873Z,96899.03
2023-02-18T04:45:54.841Z,96910.75
2023-02-18T04:48:56.905Z,96912.00
2023-02-18T04:51:58.883Z,96907.50
2023-02-18T04:55:01.182Z,96897.78
2023-02-18T04:58:02.711Z,96905.81
2023-02-18T05:01:05.471Z,96905.28
2023-02-18T05:04:07.097Z,96898.78
2023-02-18T05:07:08.793Z,96899.09
2023-02-18T05:10:14.722Z,96893.88
2023-02-18T05:13:17.008Z,96891.06
2023-02-18T05:16:19.710Z,96885.88
2023-02-18T05:19:21.658Z,96883.31
2023-02-18T05:22:23.309Z,96879.94
2023-02-18T05:25:25.374Z,96878.44
2023-02-18T05:28:26.940Z,96892.50
2023-02-18T05:31:29.050Z,96887.44
2023-02-18T05:34:31.205Z,96889.81
2023-02-18T05:37:33.268Z,96884.63
2023-02-18T05:40:34.868Z,96877.28
2023-02-18T05:43:56.895Z,96872.09
2023-02-18T05:47:01.058Z,96881.09
2023-02-18T05:50:04.204Z,96885.59
2023-02-18T05:53:06.277Z,96889.50
2023-02-18T05:56:08.603Z,96889.13
2023-02-18T05:59:10.804Z,96899.94
2023-02-18T06:02:12.843Z,96910.50
2023-02-18T06:05:14.397Z,96908.66
2023-02-18T06:08:16.500Z,96908.66
2023-02-18T06:11:18.609Z,96906.84
2023-02-18T06:14:20.618Z,96907.09
2023-02-18T06:17:22.748Z,96911.19
2023-02-18T06:20:24.293Z,96911.19
2023-02-18T06:23:26.857Z,96904.56
2023-02-18T06:26:28.868Z,96904.31
2023-02-18T06:29:31.304Z,96903.88
2023-02-18T06:32:34.166Z,96904.97
2023-02-18T06:35:36.174Z,96900.91
2023-02-18T06:38:40.176Z,96898.53
2023-02-18T06:41:42.238Z,96897.81
2023-02-18T06:44:44.270Z,96895.13
2023-02-18T06:47:46.766Z,96891.75
2023-02-18T06:50:49.379Z,96890.94
2023-02-18T06:53:52.288Z,96886.41
2023-02-18T06:56:54.314Z,96883.91
2023-02-18T06:59:56.639Z,96889.09
2023-02-18T07:02:58.650Z,96881.91
2023-02-18T07:06:01.155Z,96885.44
2023-02-18T07:09:03.192Z,96889.94
2023-02-18T07:12:06.192Z,96878.25
2023-02-18T07:15:08.057Z,96888.94
2023-02-18T07:18:09.667Z,96886.16
2023-02-18T07:21:11.297Z,96882.50
2023-02-18T07:24:13.301Z,96895.72
2023-02-18T07:27:15.298Z,96893.72
2023-02-18T07:30:20.555Z,96900.75
2023-02-18T07:33:22.627Z,96905.81
2023-02-18T07:36:24.643Z,96909.03
2023-02-18T07:39:26.706Z,96898.25
2023-02-18T07:42:28.766Z,96890.09
2023-02-18T07:45:30.813Z,96890.63
2023-02-18T07:48:32.393Z,96880.78
2023-02-18T07:51:34.873Z,96873.63
2023-02-18T07:54:36.985Z,96874.19
2023-02-18T07:57:57.688Z,96869.38
2023-02-18T08:01:00.261Z,96874.47
2023-02-18T08:04:02.286Z,96864.47
2023-02-18T08:07:03.960Z,96860.50
2023-02-18T08:10:06.597Z,96866.44
2023-02-18T08:13:08.297Z,96859.09
2023-02-18T08:16:10.579Z,96864.00
2023-02-18T08:19:12.907Z,96853.00
2023-02-18T08:22:15.343Z,96858.22
2023-02-18T08:25:28.999Z,96847.91
2023-02-18T08:28:31.416Z,96846.66
2023-02-18T08:31:34.828Z,96846.50
2023-02-18T08:34:37.150Z,96856.63
2023-02-18T08:37:52.194Z,96837.91
2023-02-18T08:41:07.339Z,96848.13
2023-02-18T08:44:09.870Z,96844.88
2023-02-18T08:48:17.010Z,96842.06
2023-02-18T08:50:34.434Z,96836.41
2023-02-18T08:53:36.653Z,96848.34
2023-02-18T08:56:39.565Z,96822.44
2023-02-18T08:59:41.632Z,96831.84
2023-02-18T09:02:43.543Z,96828.75
2023-02-18T09:05:45.581Z,96822.94
2023-02-18T09:08:47.655Z,96826.97
2023-02-18T09:11:50.097Z,96825.69
2023-02-18T09:14:52.210Z,96815.69
2023-02-18T09:17:53.863Z,96813.41
2023-02-18T09:20:57.920Z,96809.03
2023-02-18T09:24:00.212Z,96795.38
2023-02-18T09:27:03.741Z,96796.59
2023-02-18T09:30:06.590Z,96795.13
2023-02-18T09:33:08.676Z,96787.66
2023-02-18T09:36:10.232Z,96786.84
2023-02-18T09:39:13.726Z,96791.44
2023-02-18T09:42:18.692Z,96794.34
2023-02-18T09:45:21.783Z,96787.41
2023-02-18T09:48:31.897Z,96768.03
2023-02-18T09:51:34.003Z,96781.81
2023-02-18T09:54:37.104Z,96768.94
2023-02-18T09:57:44.586Z,96778.88
2023-02-18T10:00:51.178Z,96770.41
2023-02-18T10:03:55.758Z,96775.97
2023-02-18T10:06:59.469Z,96765.09
2023-02-18T10:10:16.352Z,96763.63
2023-02-18T10:13:34.432Z,96765.81
2023-02-18T10:16:36.440Z,96779.59
2023-02-18T10:19:43.194Z,96759.31
2023-02-18T10:22:45.808Z,96738.06
2023-02-18T10:25:49.080Z,96753.66
2023-02-18T10:28:52.505Z,96743.94
2023-02-18T10:32:06.689Z,96749.28
2023-02-18T10:35:50.292Z,96753.84
2023-02-18T10:38:58.401Z,96740.78
2023-02-18T10:42:15.644Z,96736.28
2023-02-18T10:45:50.342Z,96717.16
2023-02-18T10:49:08.097Z,96711.69
2023-02-18T10:52:18.045Z,96706.69
2023-02-18T10:55:19.830Z,96683.22
2023-02-18T10:58:41.931Z,96698.19
2023-02-18T11:01:44.498Z,96703.91
2023-02-18T11:04:47.180Z,96702.56
2023-02-18T11:07:51.868Z,96699.22
2023-02-18T11:10:55.453Z,96699.44
2023-02-18T11:14:02.127Z,96693.41
2023-02-18T11:17:17.888Z,96702.31
2023-02-18T11:20:34.240Z,96700.44
2023-02-18T11:23:50.564Z,96689.91
2023-02-18T11:26:52.132Z,96688.38
2023-02-18T11:30:00.571Z,96677.50
2023-02-18T11:33:34.524Z,96674.28
2023-02-18T11:36:38.685Z,96670.59
2023-02-18T11:39:45.905Z,96686.53
2023-02-18T11:42:48.622Z,96664.91
2023-02-18T11:46:09.147Z,96677.81
2023-02-18T11:49:22.736Z,96663.41
2023-02-18T11:52:28.852Z,96656.34
2023-02-18T11:55:31.183Z,96660.56
2023-02-18T11:58:40.953Z,96652.97
2023-02-18T12:01:51.056Z,96656.19
2023-02-18T12:04:59.878Z,96654.66
2023-02-18T12:08:07.566Z,96629.50
2023-02-18T12:11:19.845Z,96635.25
2023-02-18T12:14:23.475Z,96617.25
2023-02-18T12:17:49.827Z,96622.31
2023-02-18T12:21:28.621Z,96629.19
2023-02-18T12:24:52.676Z,96609.41
2023-02-18T12:28:22.014Z,96612.75
2023-02-18T12:31:48.169Z,96600.69
2023-02-18T12:34:52.833Z,96600.19
2023-02-18T12:38:20.315Z,96600.03
2023-02-18T12:41:52.499Z,96605.06
2023-02-18T12:45:13.011Z,96611.63
2023-02-18T12:48:21.919Z,96596.00
2023-02-18T12:51:42.609Z,96597.00
2023-02-18T12:55:04.168Z,96597.66
2023-02-18T12:58:31.899Z,96590.78
2023-02-18T13:02:14.280Z,96598.69
2023-02-18T13:05:18.824Z,96600.53
2023-02-18T13:08:26.271Z,96617.47
2023-02-18T13:11:38.056Z,96587.63
2023-02-18T13:14:49.680Z,96589.97
2023-02-18T13:17:56.802Z,96584.25
2023-02-18T13:21:05.474Z,96594.47
2023-02-18T13:24:12.937Z,96597.16
2023-02-18T13:27:17.567Z,96577.56
2023-02-18T13:30:22.276Z,96583.25
2023-02-18T13:33:34.755Z,96574.38
2023-02-18T13:37:03.833Z,96574.69
2023-02-18T13:40:17.592Z,96582.41
2023-02-18T13:43:27.981Z,96568.63
2023-02-18T13:46:29.665Z,96571.66
2023-02-18T13:49:37.991Z,96576.69
2023-02-18T13:52:39.770Z,96575.69
2023-02-18T13:56:18.771Z,96579.56
2023-02-18T13:59:37.995Z,96563.44
2023-02-18T14:02:56.854Z,96581.91
2023-02-18T14:05:58.554Z,96582.75
2023-02-18T14:09:25.541Z,96577.38
2023-02-18T14:12:40.602Z,96572.84
2023-02-18T14:15:57.856Z,96595.47
2023-02-18T14:19:01.513Z,96574.16
2023-02-18T14:22:31.083Z,96573.16
2023-02-18T14:25:38.212Z,96577.69
2023-02-18T14:28:48.837Z,96571.66
2023-02-18T14:32:10.795Z,96571.50
2023-02-18T14:35:40.015Z,96573.16
2023-02-18T14:39:35.826Z,96562.28
2023-02-18T14:43:18.943Z,96568.81
2023-02-18T14:46:38.704Z,96569.81
2023-02-18T14:49:44.956Z,96568.31
2023-02-18T14:52:54.451Z,96565.97
2023-02-18T14:56:03.527Z,96570.47
2023-02-18T14:59:06.248Z,96567.13
2023-02-18T15:02:25.279Z,96562.78
2023-02-18T15:05:30.179Z,96568.63
2023-02-18T15:08:38.982Z,96553.38
2023-02-18T15:12:01.402Z,96546.69
2023-02-18T15:15:06.071Z,96548.53
2023-02-18T15:18:18.623Z,96564.78
2023-02-18T15:21:27.893Z,96559.59
2023-02-18T15:24:37.965Z,96563.94
2023-02-18T15:27:45.870Z,96557.75
2023-02-18T15:30:47.388Z,96569.47
2023-02-18T15:33:48.916Z,96562.78
2023-02-18T15:36:52.023Z,96569.00
2023-02-18T15:39:54.475Z,96569.16
2023-02-18T15:42:59.915Z,96561.59
2023-02-18T15:46:05.071Z,96567.16
2023-02-18T15:49:07.653Z,96578.19
2023-02-18T15:52:09.243Z,96579.19
2023-02-18T15:55:26.823Z,96573.00
2023-02-18T15:58:31.198Z,96573.16
2023-02-18T16:01:32.927Z,96569.13
2023-02-18T16:04:39.104Z,96568.47
2023-02-18T16:07:53.088Z,96558.56
2023-02-18T16:11:00.953Z,96550.88
2023-02-18T16:14:08.318Z,96558.06
2023-02-18T16:17:15.455Z,96558.56
2023-02-18T16:20:27.318Z,96555.03
2023-02-18T16:23:59.543Z,96560.22
2023-02-18T16:27:01.469Z,96554.69
2023-02-18T16:30:16.907Z,96559.72
2023-02-18T16:33:18.756Z,96559.03
2023-02-18T16:36:23.424Z,96563.22
2023-02-18T16:39:25.190Z,96562.53
2023-02-18T16:42:26.718Z,96559.34
2023-02-18T16:45:52.517Z,96554.66
2023-02-18T16:48:55.814Z,96558.34
2023-02-18T16:51:59.973Z,96563.16
2023-02-18T16:55:01.641Z,96571.56
2023-02-18T16:58:03.242Z,96569.53
2023-02-18T17:01:05.265Z,96571.38
2023-02-18T17:04:10.446Z,96566.63
2023-02-18T17:07:12.499Z,96578.53
2023-02-18T17:10:14.884Z,96573.66
2023-02-18T17:13:21.717Z,96580.03
2023-02-18T17:16:23.596Z,96584.00
2023-02-18T17:19:27.807Z,96592.06
2023-02-18T17:22:29.388Z,96605.78
2023-02-18T17:25:39.281Z,96599.88
2023-02-18T17:28:40.888Z,96594.03
2023-02-18T17:31:46.991Z,96602.38
2023-02-18T17:34:48.785Z,96590.97
2023-02-18T17:37:50.543Z,96608.88
2023-02-18T17:40:52.152Z,96601.31
2023-02-18T17:43:53.677Z,96607.66
2023-02-18T17:46:55.279Z,96611.81
2023-02-18T17:49:56.839Z,96616.31
2023-02-18T17:52:59.142Z,96619.00
2023-02-18T17:56:00.905Z,96602.75
2023-02-18T17:59:02.449Z,96602.19
2023-02-18T18:02:04.016Z,96602.03
2023-02-18T18:05:05.893Z,96617.41
2023-02-18T18:08:08.083Z,96621.28
2023-02-18T18:11:14.695Z,96616.38
2023-02-18T18:14:16.272Z,96620.72
2023-02-18T18:17:17.806Z,96614.88
2023-02-18T18:20:21.100Z,96625.72
2023-02-18T18:23:23.329Z,96614.31
2023-02-18T18:26:25.086Z,96621.69
2023-02-18T18:29:26.644Z,96613.81
2023-02-18T18:32:28.162Z,96611.59
2023-02-18T18:35:32.721Z,96609.91
2023-02-18T18:38:34.297Z,96603.06
2023-02-18T18:41:35.942Z,96600.81
2023-02-18T18:44:37.612Z,96601.66
2023-02-18T18:47:39.469Z,96599.00
2023-02-18T18:50:42.013Z,96605.19
2023-02-18T18:53:43.849Z,96607.34
2023-02-18T18:56:45.480Z,96610.03
2023-02-18T18:59:46.989Z,96615.38
2023-02-18T19:02:58.347Z,96612.16
2023-02-18T19:06:00.234Z,96611.31
2023-02-18T19:09:03.307Z,96622.03
2023-02-18T19:12:04.951Z,96623.84
2023-02-18T19:15:07.038Z,96621.03
2023-02-18T19:18:13.494Z,96625.53
2023-02-18T19:21:15.730Z,96632.91
2023-02-18T19:24:17.296Z,96626.72
2023-02-18T19:27:19.139Z,96620.19
2023-02-18T19:30:23.937Z,96619.53
2023-02-18T19:33:25.675Z,96623.03
2023-02-18T19:36:27.286Z,96627.38
2023-02-18T19:39:29.133Z,96628.53
2023-02-18T19:42:30.846Z,96627.69
2023-02-18T19:45:33.632Z,96627.69
2023-02-18T19:48:35.250Z,96642.75
2023-02-18T19:51:36.857Z,96643.75
2023-02-18T19:54:38.409Z,96650.94
2023-02-18T19:57:40.199Z,96638.56
2023-02-18T20:00:43.653Z,96649.25
2023-02-18T20:03:45.332Z,96657.28
2023-02-18T20:06:46.993Z,96648.25
2023-02-18T20:09:51.967Z,96649.25
2023-02-18T20:12:54.324Z,96646.44
2023-02-18T20:15:56.133Z,96657.44
2023-02-18T20:18:57.884Z,96655.59
2023-02-18T20:22:00.734Z,96660.94
2023-02-18T20:25:02.474Z,96659.44
2023-02-18T20:28:04.174Z,96660.44
2023-02-18T20:31:11.823Z,96658.41
2023-02-18T20:34:14.129Z,96648.75
2023-02-18T20:37:16.108Z,96661.78
2023-02-18T20:40:17.851Z,96649.25
2023-02-18T20:43:19.503Z,96657.44
2023-02-18T20:46:21.860Z,96652.56
2023-02-18T20:49:23.589Z,96649.41
2023-02-18T20:52:25.472Z,96652.41
2023-02-18T20:55:29.978Z,96655.91
2023-02-18T20:58:32.503Z,96660.44
2023-02-18T21:01:34.681Z,96656.22
2023-02-18T21:04:36.801Z,96652.00
2023-02-18T21:07:38.809Z,96663.78
2023-02-18T21:10:41.559Z,96656.59
2023-02-18T21:13:44.825Z,96655.09
2023-02-18T21:16:46.823Z,96661.41
2023-02-18T21:19:48.415Z,96658.06
2023-02-18T21:22:53.769Z,96657.06
2023-02-18T21:26:08.888Z,96654.53
2023-02-18T21:29:15.174Z,96652.84
2023-02-18T21:32:19.106Z,96654.00
2023-02-18T21:35:20.817Z,96652.00
2023-02-18T21:38:22.656Z,96658.19
2023-02-18T21:41:25.293Z,96657.22
2023-02-18T21:44:41.195Z,96648.66
2023-02-18T21:47:44.019Z,96648.66
2023-02-18T21:50:45.590Z,96653.84
2023-02-18T21:53:47.310Z,96650.34
2023-02-18T21:56:50.183Z,96641.09
2023-02-18T21:59:51.969Z,96652.34
2023-02-18T22:02:53.630Z,96647.13
2023-02-18T22:05:55.185Z,96654.31
2023-02-18T22:09:00.694Z,96649.94
2023-02-18T22:12:03.010Z,96644.22
2023-02-18T22:15:04.820Z,96647.41
2023-02-18T22:18:06.485Z,96643.91
2023-02-18T22:21:09.364Z,96645.22
2023-02-18T22:24:13.602Z,96639.88
2023-02-18T22:27:16.019Z,96634.53
2023-02-18T22:30:18.854Z,96649.88
2023-02-18T22:33:20.461Z,96642.69
2023-02-18T22:36:23.900Z,96645.69
2023-02-18T22:39:26.472Z,96640.78
2023-02-18T22:42:28.141Z,96639.66
2023-02-18T22:45:30.861Z,96627.59
2023-02-18T22:48:35.959Z,96629.25
2023-02-18T22:51:41.067Z,96635.75
2023-02-18T22:54:42.649Z,96635.63
2023-02-18T22:57:44.216Z,96641.94
2023-02-18T23:00:45.761Z,96635.75
2023-02-18T23:03:47.351Z,96634.91
2023-02-18T23:06:49.668Z,96627.03
2023-02-18T23:09:51.248Z,96635.53
2023-02-18T23:12:53.331Z,96627.19
2023-02-18T23:16:00.104Z,96629.19
2023-02-18T23:19:01.728Z,96623.16
2023-02-18T23:22:04.208Z,96624.84
2023-02-18T23:25:06.392Z,96610.78
2023-02-18T23:28:07.993Z,96605.91
2023-02-18T23:31:10.052Z,96609.22
2023-02-18T23:34:16.918Z,96607.53
2023-02-18T23:37:38.474Z,96601.69
2023-02-18T23:40:39.999Z,96600.84
2023-02-18T23:43:41.635Z,96597.63
2023-02-18T23:46:44.674Z,96598.63
2023-02-18T23:49:46.212Z,96595.97
2023-02-18T23:52:50.207Z,96595.78
2023-02-18T23:56:20.803Z,96594.56
2023-02-18T23:59:22.431Z,96585.41
